sensor_id;sensor_type;location;lat;lon;timestamp;temperature;humidity
11144;DHT22;5626;44.730;10.276;2022-09-09T00:02:12;21.60;92.10
11144;DHT22;5626;44.730;10.276;2022-09-09T00:04:46;21.60;91.80
11144;DHT22;5626;44.730;10.276;2022-09-09T00:07:21;21.60;91.20
11144;DHT22;5626;44.730;10.276;2022-09-09T00:09:57;21.60;90.70
11144;DHT22;5626;44.730;10.276;2022-09-09T00:12:38;21.60;90.80
11144;DHT22;5626;44.730;10.276;2022-09-09T00:15:13;21.60;91.20
11144;DHT22;5626;44.730;10.276;2022-09-09T00:17:49;21.50;91.40
11144;DHT22;5626;44.730;10.276;2022-09-09T00:20:25;21.50;91.00
11144;DHT22;5626;44.730;10.276;2022-09-09T00:23:05;21.50;91.20
11144;DHT22;5626;44.730;10.276;2022-09-09T00:25:43;21.60;91.80
11144;DHT22;5626;44.730;10.276;2022-09-09T00:28:19;21.60;91.00
11144;DHT22;5626;44.730;10.276;2022-09-09T00:30:49;21.40;91.30
11144;DHT22;5626;44.730;10.276;2022-09-09T00:33:22;21.40;91.10
11144;DHT22;5626;44.730;10.276;2022-09-09T00:35:56;21.40;91.20
11144;DHT22;5626;44.730;10.276;2022-09-09T00:38:32;21.40;91.70
11144;DHT22;5626;44.730;10.276;2022-09-09T00:41:06;21.50;92.40
11144;DHT22;5626;44.730;10.276;2022-09-09T00:43:40;21.40;91.50
11144;DHT22;5626;44.730;10.276;2022-09-09T00:49:22;21.30;91.80
11144;DHT22;5626;44.730;10.276;2022-09-09T00:52:02;21.20;91.80
11144;DHT22;5626;44.730;10.276;2022-09-09T00:54:39;21.30;92.10
11144;DHT22;5626;44.730;10.276;2022-09-09T00:57:21;21.30;92.30
11144;DHT22;5626;44.730;10.276;2022-09-09T00:59:55;21.20;92.40
11144;DHT22;5626;44.730;10.276;2022-09-09T01:02:28;21.20;91.80
11144;DHT22;5626;44.730;10.276;2022-09-09T01:05:05;21.10;91.80
11144;DHT22;5626;44.730;10.276;2022-09-09T01:07:36;21.00;91.90
11144;DHT22;5626;44.730;10.276;2022-09-09T01:10:11;21.00;91.90
11144;DHT22;5626;44.730;10.276;2022-09-09T01:12:47;21.00;91.70
11144;DHT22;5626;44.730;10.276;2022-09-09T01:15:24;21.00;91.30
11144;DHT22;5626;44.730;10.276;2022-09-09T01:18:01;21.00;91.40
11144;DHT22;5626;44.730;10.276;2022-09-09T01:20:45;21.00;91.80
11144;DHT22;5626;44.730;10.276;2022-09-09T01:23:44;21.10;91.90
11144;DHT22;5626;44.730;10.276;2022-09-09T01:26:27;21.10;92.10
11144;DHT22;5626;44.730;10.276;2022-09-09T01:29:02;21.10;92.30
11144;DHT22;5626;44.730;10.276;2022-09-09T01:31:38;21.00;91.90
11144;DHT22;5626;44.730;10.276;2022-09-09T01:34:11;21.00;91.50
11144;DHT22;5626;44.730;10.276;2022-09-09T01:36:46;20.90;91.70
11144;DHT22;5626;44.730;10.276;2022-09-09T01:39:19;20.90;91.30
11144;DHT22;5626;44.730;10.276;2022-09-09T01:41:59;20.90;91.00
11144;DHT22;5626;44.730;10.276;2022-09-09T01:44:30;20.90;91.20
11144;DHT22;5626;44.730;10.276;2022-09-09T01:47:01;20.90;91.00
11144;DHT22;5626;44.730;10.276;2022-09-09T01:49:30;20.90;91.10
11144;DHT22;5626;44.730;10.276;2022-09-09T01:52:08;20.90;91.10
11144;DHT22;5626;44.730;10.276;2022-09-09T01:54:39;20.80;91.00
11144;DHT22;5626;44.730;10.276;2022-09-09T01:57:21;20.90;90.80
11144;DHT22;5626;44.730;10.276;2022-09-09T02:00:02;20.80;90.50
11144;DHT22;5626;44.730;10.276;2022-09-09T02:02:47;20.80;90.90
11144;DHT22;5626;44.730;10.276;2022-09-09T02:05:30;20.90;90.90
11144;DHT22;5626;44.730;10.276;2022-09-09T02:08:07;20.90;91.30
11144;DHT22;5626;44.730;10.276;2022-09-09T02:10:55;20.90;91.00
11144;DHT22;5626;44.730;10.276;2022-09-09T02:13:38;20.80;91.30
11144;DHT22;5626;44.730;10.276;2022-09-09T02:16:16;20.80;91.40
11144;DHT22;5626;44.730;10.276;2022-09-09T02:18:51;20.70;91.40
11144;DHT22;5626;44.730;10.276;2022-09-09T02:21:36;20.70;92.20
11144;DHT22;5626;44.730;10.276;2022-09-09T02:24:06;20.60;92.60
11144;DHT22;5626;44.730;10.276;2022-09-09T02:26:46;20.60;92.20
11144;DHT22;5626;44.730;10.276;2022-09-09T02:29:23;20.50;91.90
11144;DHT22;5626;44.730;10.276;2022-09-09T02:31:55;20.40;91.50
11144;DHT22;5626;44.730;10.276;2022-09-09T02:34:34;20.40;91.30
11144;DHT22;5626;44.730;10.276;2022-09-09T02:37:07;20.50;93.00
11144;DHT22;5626;44.730;10.276;2022-09-09T02:39:38;20.50;92.70
11144;DHT22;5626;44.730;10.276;2022-09-09T02:42:11;20.40;92.50
11144;DHT22;5626;44.730;10.276;2022-09-09T02:44:45;20.30;92.90
11144;DHT22;5626;44.730;10.276;2022-09-09T02:47:25;20.20;93.20
11144;DHT22;5626;44.730;10.276;2022-09-09T02:50:11;20.10;93.20
11144;DHT22;5626;44.730;10.276;2022-09-09T02:52:49;20.10;93.10
11144;DHT22;5626;44.730;10.276;2022-09-09T02:55:32;20.10;93.30
11144;DHT22;5626;44.730;10.276;2022-09-09T02:58:09;20.10;93.40
11144;DHT22;5626;44.730;10.276;2022-09-09T03:00:42;20.10;93.30
11144;DHT22;5626;44.730;10.276;2022-09-09T03:03:12;20.10;92.60
11144;DHT22;5626;44.730;10.276;2022-09-09T03:05:45;20.10;92.60
11144;DHT22;5626;44.730;10.276;2022-09-09T03:08:15;20.00;92.30
11144;DHT22;5626;44.730;10.276;2022-09-09T03:10:45;20.00;92.90
11144;DHT22;5626;44.730;10.276;2022-09-09T03:13:16;20.10;92.80
11144;DHT22;5626;44.730;10.276;2022-09-09T03:15:49;20.20;92.80
11144;DHT22;5626;44.730;10.276;2022-09-09T03:18:21;20.10;93.10
11144;DHT22;5626;44.730;10.276;2022-09-09T03:20:53;19.90;93.20
11144;DHT22;5626;44.730;10.276;2022-09-09T03:23:23;19.90;93.10
11144;DHT22;5626;44.730;10.276;2022-09-09T03:25:52;19.90;93.20
11144;DHT22;5626;44.730;10.276;2022-09-09T03:28:32;19.90;93.40
11144;DHT22;5626;44.730;10.276;2022-09-09T03:31:05;19.80;93.20
11144;DHT22;5626;44.730;10.276;2022-09-09T03:33:40;19.90;93.20
11144;DHT22;5626;44.730;10.276;2022-09-09T03:36:13;19.90;93.30
11144;DHT22;5626;44.730;10.276;2022-09-09T03:38:43;19.90;93.40
11144;DHT22;5626;44.730;10.276;2022-09-09T03:41:13;19.90;93.50
11144;DHT22;5626;44.730;10.276;2022-09-09T03:43:43;19.90;93.70
11144;DHT22;5626;44.730;10.276;2022-09-09T03:46:14;19.80;93.30
11144;DHT22;5626;44.730;10.276;2022-09-09T03:48:44;19.90;93.20
11144;DHT22;5626;44.730;10.276;2022-09-09T03:51:14;19.90;93.30
11144;DHT22;5626;44.730;10.276;2022-09-09T03:53:43;19.90;93.40
11144;DHT22;5626;44.730;10.276;2022-09-09T03:56:14;20.00;93.50
11144;DHT22;5626;44.730;10.276;2022-09-09T03:58:43;20.10;93.70
11144;DHT22;5626;44.730;10.276;2022-09-09T04:01:15;20.10;93.00
11144;DHT22;5626;44.730;10.276;2022-09-09T04:03:46;20.10;92.50
11144;DHT22;5626;44.730;10.276;2022-09-09T04:06:16;20.10;92.40
11144;DHT22;5626;44.730;10.276;2022-09-09T04:08:47;20.10;92.90
11144;DHT22;5626;44.730;10.276;2022-09-09T04:11:19;20.10;93.30
11144;DHT22;5626;44.730;10.276;2022-09-09T04:13:51;20.00;93.10
11144;DHT22;5626;44.730;10.276;2022-09-09T04:16:22;19.80;93.50
11144;DHT22;5626;44.730;10.276;2022-09-09T04:18:52;19.80;93.50
11144;DHT22;5626;44.730;10.276;2022-09-09T04:21:22;19.70;94.00
11144;DHT22;5626;44.730;10.276;2022-09-09T04:23:51;19.80;93.00
11144;DHT22;5626;44.730;10.276;2022-09-09T04:26:22;19.70;93.20
11144;DHT22;5626;44.730;10.276;2022-09-09T04:28:52;19.70;93.10
11144;DHT22;5626;44.730;10.276;2022-09-09T04:31:24;19.70;93.20
11144;DHT22;5626;44.730;10.276;2022-09-09T04:33:56;19.60;93.50
11144;DHT22;5626;44.730;10.276;2022-09-09T04:36:26;19.50;93.60
11144;DHT22;5626;44.730;10.276;2022-09-09T04:39:00;19.60;93.60
11144;DHT22;5626;44.730;10.276;2022-09-09T04:41:30;19.60;93.90
11144;DHT22;5626;44.730;10.276;2022-09-09T04:44:00;19.60;93.80
11144;DHT22;5626;44.730;10.276;2022-09-09T04:46:34;19.60;93.70
11144;DHT22;5626;44.730;10.276;2022-09-09T04:49:05;19.50;93.60
11144;DHT22;5626;44.730;10.276;2022-09-09T04:51:35;19.60;93.40
11144;DHT22;5626;44.730;10.276;2022-09-09T04:54:05;19.60;93.30
11144;DHT22;5626;44.730;10.276;2022-09-09T04:56:36;19.60;93.60
11144;DHT22;5626;44.730;10.276;2022-09-09T04:59:06;19.60;93.40
11144;DHT22;5626;44.730;10.276;2022-09-09T05:01:43;19.70;93.40
11144;DHT22;5626;44.730;10.276;2022-09-09T05:04:13;19.70;93.40
11144;DHT22;5626;44.730;10.276;2022-09-09T05:06:44;19.80;93.30
11144;DHT22;5626;44.730;10.276;2022-09-09T05:09:14;19.80;93.10
11144;DHT22;5626;44.730;10.276;2022-09-09T05:11:45;19.80;92.60
11144;DHT22;5626;44.730;10.276;2022-09-09T05:14:24;19.80;92.60
11144;DHT22;5626;44.730;10.276;2022-09-09T05:16:56;19.80;92.60
11144;DHT22;5626;44.730;10.276;2022-09-09T05:19:26;19.80;92.80
11144;DHT22;5626;44.730;10.276;2022-09-09T05:21:55;19.80;92.50
11144;DHT22;5626;44.730;10.276;2022-09-09T05:24:33;19.80;92.80
11144;DHT22;5626;44.730;10.276;2022-09-09T05:27:04;19.80;92.90
11144;DHT22;5626;44.730;10.276;2022-09-09T05:29:34;19.90;93.60
11144;DHT22;5626;44.730;10.276;2022-09-09T05:32:07;20.00;93.30
11144;DHT22;5626;44.730;10.276;2022-09-09T05:34:40;19.90;93.00
11144;DHT22;5626;44.730;10.276;2022-09-09T05:37:10;19.80;93.40
11144;DHT22;5626;44.730;10.276;2022-09-09T05:39:39;19.80;93.00
11144;DHT22;5626;44.730;10.276;2022-09-09T05:42:10;19.90;92.80
11144;DHT22;5626;44.730;10.276;2022-09-09T05:44:40;20.00;92.60
11144;DHT22;5626;44.730;10.276;2022-09-09T05:47:14;20.00;92.60
11144;DHT22;5626;44.730;10.276;2022-09-09T05:49:44;20.20;92.90
11144;DHT22;5626;44.730;10.276;2022-09-09T05:52:14;20.20;93.10
11144;DHT22;5626;44.730;10.276;2022-09-09T05:54:44;20.30;93.90
11144;DHT22;5626;44.730;10.276;2022-09-09T05:57:13;20.40;93.40
11144;DHT22;5626;44.730;10.276;2022-09-09T05:59:44;20.40;92.90
11144;DHT22;5626;44.730;10.276;2022-09-09T06:02:15;20.60;92.60
11144;DHT22;5626;44.730;10.276;2022-09-09T06:04:45;20.70;92.00
11144;DHT22;5626;44.730;10.276;2022-09-09T06:07:15;20.80;91.80
11144;DHT22;5626;44.730;10.276;2022-09-09T06:09:44;20.80;92.10
11144;DHT22;5626;44.730;10.276;2022-09-09T06:12:14;20.80;92.20
11144;DHT22;5626;44.730;10.276;2022-09-09T06:14:44;20.90;92.70
11144;DHT22;5626;44.730;10.276;2022-09-09T06:17:16;21.00;92.70
11144;DHT22;5626;44.730;10.276;2022-09-09T06:19:46;21.10;92.50
11144;DHT22;5626;44.730;10.276;2022-09-09T06:22:16;21.20;92.70
11144;DHT22;5626;44.730;10.276;2022-09-09T06:24:46;21.40;92.80
11144;DHT22;5626;44.730;10.276;2022-09-09T06:27:17;21.40;93.00
11144;DHT22;5626;44.730;10.276;2022-09-09T06:29:47;21.50;93.20
11144;DHT22;5626;44.730;10.276;2022-09-09T06:32:19;21.60;93.20
11144;DHT22;5626;44.730;10.276;2022-09-09T06:34:50;21.60;93.10
11144;DHT22;5626;44.730;10.276;2022-09-09T06:37:19;21.70;93.10
11144;DHT22;5626;44.730;10.276;2022-09-09T06:39:52;21.80;93.10
11144;DHT22;5626;44.730;10.276;2022-09-09T06:42:23;21.90;93.00
11144;DHT22;5626;44.730;10.276;2022-09-09T06:45:04;22.10;92.80
11144;DHT22;5626;44.730;10.276;2022-09-09T06:47:44;22.30;92.70
11144;DHT22;5626;44.730;10.276;2022-09-09T06:50:15;22.50;92.60
11144;DHT22;5626;44.730;10.276;2022-09-09T06:52:46;22.60;92.40
11144;DHT22;5626;44.730;10.276;2022-09-09T06:55:16;22.70;92.20
11144;DHT22;5626;44.730;10.276;2022-09-09T06:57:47;22.80;92.10
11144;DHT22;5626;44.730;10.276;2022-09-09T07:00:23;22.90;92.00
11144;DHT22;5626;44.730;10.276;2022-09-09T07:02:54;23.00;91.90
11144;DHT22;5626;44.730;10.276;2022-09-09T07:05:23;23.00;91.90
11144;DHT22;5626;44.730;10.276;2022-09-09T07:07:54;23.00;91.90
11144;DHT22;5626;44.730;10.276;2022-09-09T07:10:24;23.10;91.60
11144;DHT22;5626;44.730;10.276;2022-09-09T07:12:55;23.10;91.40
11144;DHT22;5626;44.730;10.276;2022-09-09T07:15:25;23.20;91.20
11144;DHT22;5626;44.730;10.276;2022-09-09T07:18:01;23.30;90.90
11144;DHT22;5626;44.730;10.276;2022-09-09T07:20:31;23.40;91.00
11144;DHT22;5626;44.730;10.276;2022-09-09T07:23:01;23.50;90.70
11144;DHT22;5626;44.730;10.276;2022-09-09T07:25:31;23.60;90.00
11144;DHT22;5626;44.730;10.276;2022-09-09T07:28:01;23.70;89.80
11144;DHT22;5626;44.730;10.276;2022-09-09T07:30:31;23.80;89.30
11144;DHT22;5626;44.730;10.276;2022-09-09T07:33:02;24.00;88.80
11144;DHT22;5626;44.730;10.276;2022-09-09T07:35:32;24.10;87.90
11144;DHT22;5626;44.730;10.276;2022-09-09T07:38:02;24.20;88.60
11144;DHT22;5626;44.730;10.276;2022-09-09T07:40:32;24.30;88.20
11144;DHT22;5626;44.730;10.276;2022-09-09T07:43:02;24.50;88.00
11144;DHT22;5626;44.730;10.276;2022-09-09T07:45:33;24.60;87.90
11144;DHT22;5626;44.730;10.276;2022-09-09T07:48:05;24.60;87.90
11144;DHT22;5626;44.730;10.276;2022-09-09T07:50:35;24.70;87.70
11144;DHT22;5626;44.730;10.276;2022-09-09T07:53:05;24.80;87.50
11144;DHT22;5626;44.730;10.276;2022-09-09T07:55:34;24.90;87.70
11144;DHT22;5626;44.730;10.276;2022-09-09T07:58:04;25.00;87.80
11144;DHT22;5626;44.730;10.276;2022-09-09T08:00:34;25.10;87.70
11144;DHT22;5626;44.730;10.276;2022-09-09T08:03:05;25.20;87.30
11144;DHT22;5626;44.730;10.276;2022-09-09T08:05:35;25.30;87.80
11144;DHT22;5626;44.730;10.276;2022-09-09T08:08:07;25.40;87.40
11144;DHT22;5626;44.730;10.276;2022-09-09T08:10:37;25.50;87.90
11144;DHT22;5626;44.730;10.276;2022-09-09T08:13:06;25.70;87.30
11144;DHT22;5626;44.730;10.276;2022-09-09T08:15:45;25.80;87.60
11144;DHT22;5626;44.730;10.276;2022-09-09T08:18:17;25.90;87.20
11144;DHT22;5626;44.730;10.276;2022-09-09T08:20:47;26.00;87.10
11144;DHT22;5626;44.730;10.276;2022-09-09T08:23:17;26.00;86.50
11144;DHT22;5626;44.730;10.276;2022-09-09T08:25:46;26.20;88.00
11144;DHT22;5626;44.730;10.276;2022-09-09T08:28:17;26.20;88.10
11144;DHT22;5626;44.730;10.276;2022-09-09T08:30:46;26.30;87.50
11144;DHT22;5626;44.730;10.276;2022-09-09T08:33:18;26.50;89.20
11144;DHT22;5626;44.730;10.276;2022-09-09T08:35:50;26.50;88.90
11144;DHT22;5626;44.730;10.276;2022-09-09T08:38:21;26.60;88.20
11144;DHT22;5626;44.730;10.276;2022-09-09T08:40:53;26.70;88.50
11144;DHT22;5626;44.730;10.276;2022-09-09T08:43:28;26.70;88.20
11144;DHT22;5626;44.730;10.276;2022-09-09T08:46:04;26.80;89.70
11144;DHT22;5626;44.730;10.276;2022-09-09T08:48:49;26.80;89.00
11144;DHT22;5626;44.730;10.276;2022-09-09T08:51:21;27.00;88.70
11144;DHT22;5626;44.730;10.276;2022-09-09T08:53:54;27.00;88.50
11144;DHT22;5626;44.730;10.276;2022-09-09T08:56:28;27.10;88.90
11144;DHT22;5626;44.730;10.276;2022-09-09T08:59:01;27.20;89.00
11144;DHT22;5626;44.730;10.276;2022-09-09T09:01:53;27.20;90.50
11144;DHT22;5626;44.730;10.276;2022-09-09T09:04:52;27.30;90.30
11144;DHT22;5626;44.730;10.276;2022-09-09T09:07:32;27.40;90.30
11144;DHT22;5626;44.730;10.276;2022-09-09T09:10:13;27.50;90.60
11144;DHT22;5626;44.730;10.276;2022-09-09T09:13:00;27.60;89.80
11144;DHT22;5626;44.730;10.276;2022-09-09T09:15:36;27.70;87.70
11144;DHT22;5626;44.730;10.276;2022-09-09T09:18:11;27.80;87.50
11144;DHT22;5626;44.730;10.276;2022-09-09T09:20:49;27.90;86.70
11144;DHT22;5626;44.730;10.276;2022-09-09T09:23:23;28.00;88.60
11144;DHT22;5626;44.730;10.276;2022-09-09T09:26:00;28.10;88.00
11144;DHT22;5626;44.730;10.276;2022-09-09T09:28:32;28.10;87.90
11144;DHT22;5626;44.730;10.276;2022-09-09T09:31:10;28.20;89.60
11144;DHT22;5626;44.730;10.276;2022-09-09T09:33:48;28.20;87.80
11144;DHT22;5626;44.730;10.276;2022-09-09T09:36:24;28.30;88.40
11144;DHT22;5626;44.730;10.276;2022-09-09T09:38:56;28.30;89.10
11144;DHT22;5626;44.730;10.276;2022-09-09T09:41:49;28.30;89.20
11144;DHT22;5626;44.730;10.276;2022-09-09T09:44:25;28.40;87.70
11144;DHT22;5626;44.730;10.276;2022-09-09T09:47:08;28.40;88.10
11144;DHT22;5626;44.730;10.276;2022-09-09T09:49:39;28.50;88.20
11144;DHT22;5626;44.730;10.276;2022-09-09T09:52:24;28.60;88.40
11144;DHT22;5626;44.730;10.276;2022-09-09T09:54:56;28.70;88.50
11144;DHT22;5626;44.730;10.276;2022-09-09T09:57:30;28.90;89.50
11144;DHT22;5626;44.730;10.276;2022-09-09T10:00:14;28.90;88.60
11144;DHT22;5626;44.730;10.276;2022-09-09T10:02:51;29.00;87.90
11144;DHT22;5626;44.730;10.276;2022-09-09T10:05:28;29.00;88.10
11144;DHT22;5626;44.730;10.276;2022-09-09T10:08:11;29.10;87.90
11144;DHT22;5626;44.730;10.276;2022-09-09T10:11:02;29.20;87.00
11144;DHT22;5626;44.730;10.276;2022-09-09T10:13:40;29.30;87.50
11144;DHT22;5626;44.730;10.276;2022-09-09T10:16:25;29.40;87.00
11144;DHT22;5626;44.730;10.276;2022-09-09T10:19:00;29.50;87.10
11144;DHT22;5626;44.730;10.276;2022-09-09T10:21:52;29.50;87.80
11144;DHT22;5626;44.730;10.276;2022-09-09T10:27:25;29.40;85.50
11144;DHT22;5626;44.730;10.276;2022-09-09T10:30:04;29.30;87.50
11144;DHT22;5626;44.730;10.276;2022-09-09T10:32:41;29.30;86.40
11144;DHT22;5626;44.730;10.276;2022-09-09T10:35:30;29.40;86.50
11144;DHT22;5626;44.730;10.276;2022-09-09T10:38:16;29.50;86.40
11144;DHT22;5626;44.730;10.276;2022-09-09T10:46:51;30.10;86.00
11144;DHT22;5626;44.730;10.276;2022-09-09T10:49:34;29.80;86.50
11144;DHT22;5626;44.730;10.276;2022-09-09T10:52:14;29.60;84.90
11144;DHT22;5626;44.730;10.276;2022-09-09T10:54:56;29.60;85.00
11144;DHT22;5626;44.730;10.276;2022-09-09T10:57:31;29.50;85.30
11144;DHT22;5626;44.730;10.276;2022-09-09T11:00:04;29.50;87.60
11144;DHT22;5626;44.730;10.276;2022-09-09T11:02:36;29.50;86.90
11144;DHT22;5626;44.730;10.276;2022-09-09T11:05:14;29.50;86.50
11144;DHT22;5626;44.730;10.276;2022-09-09T11:07:49;29.80;85.50
11144;DHT22;5626;44.730;10.276;2022-09-09T11:10:25;29.90;84.40
11144;DHT22;5626;44.730;10.276;2022-09-09T11:13:03;30.00;84.40
11144;DHT22;5626;44.730;10.276;2022-09-09T11:15:39;30.00;82.60
11144;DHT22;5626;44.730;10.276;2022-09-09T11:18:14;30.00;84.50
11144;DHT22;5626;44.730;10.276;2022-09-09T11:20:48;29.90;85.40
11144;DHT22;5626;44.730;10.276;2022-09-09T11:23:22;30.00;85.70
11144;DHT22;5626;44.730;10.276;2022-09-09T11:25:56;29.90;84.20
11144;DHT22;5626;44.730;10.276;2022-09-09T11:28:51;29.80;83.50
11144;DHT22;5626;44.730;10.276;2022-09-09T11:31:43;29.80;83.60
11144;DHT22;5626;44.730;10.276;2022-09-09T11:34:22;29.70;83.50
11144;DHT22;5626;44.730;10.276;2022-09-09T11:37:04;29.70;83.80
11144;DHT22;5626;44.730;10.276;2022-09-09T11:39:59;29.60;84.20
11144;DHT22;5626;44.730;10.276;2022-09-09T11:42:32;29.60;83.70
11144;DHT22;5626;44.730;10.276;2022-09-09T11:45:15;29.60;83.70
11144;DHT22;5626;44.730;10.276;2022-09-09T11:47:55;29.60;83.00
11144;DHT22;5626;44.730;10.276;2022-09-09T11:50:34;29.70;83.30
11144;DHT22;5626;44.730;10.276;2022-09-09T11:53:21;29.70;82.70
11144;DHT22;5626;44.730;10.276;2022-09-09T11:56:03;29.80;83.00
11144;DHT22;5626;44.730;10.276;2022-09-09T11:58:38;29.90;82.70
11144;DHT22;5626;44.730;10.276;2022-09-09T12:01:36;29.90;82.90
11144;DHT22;5626;44.730;10.276;2022-09-09T12:04:22;29.90;82.60
11144;DHT22;5626;44.730;10.276;2022-09-09T12:06:59;29.90;82.10
11144;DHT22;5626;44.730;10.276;2022-09-09T12:09:44;30.00;82.00
11144;DHT22;5626;44.730;10.276;2022-09-09T12:12:32;29.90;82.00
11144;DHT22;5626;44.730;10.276;2022-09-09T12:15:26;29.90;81.30
11144;DHT22;5626;44.730;10.276;2022-09-09T12:17:59;30.00;81.20
11144;DHT22;5626;44.730;10.276;2022-09-09T12:20:35;30.00;80.80
11144;DHT22;5626;44.730;10.276;2022-09-09T12:23:19;30.00;81.40
11144;DHT22;5626;44.730;10.276;2022-09-09T12:26:09;30.00;81.40
11144;DHT22;5626;44.730;10.276;2022-09-09T12:28:54;30.00;81.40
11144;DHT22;5626;44.730;10.276;2022-09-09T12:31:31;30.20;81.60
11144;DHT22;5626;44.730;10.276;2022-09-09T12:34:13;30.30;81.20
11144;DHT22;5626;44.730;10.276;2022-09-09T12:36:46;30.50;80.20
11144;DHT22;5626;44.730;10.276;2022-09-09T12:39:26;30.50;79.20
11144;DHT22;5626;44.730;10.276;2022-09-09T12:41:58;30.60;78.90
11144;DHT22;5626;44.730;10.276;2022-09-09T12:44:28;30.30;78.30
11144;DHT22;5626;44.730;10.276;2022-09-09T12:47:01;30.00;78.80
11144;DHT22;5626;44.730;10.276;2022-09-09T12:49:35;29.70;79.30
11144;DHT22;5626;44.730;10.276;2022-09-09T12:52:18;29.50;79.20
11144;DHT22;5626;44.730;10.276;2022-09-09T12:54:51;29.30;80.00
11144;DHT22;5626;44.730;10.276;2022-09-09T12:57:23;29.30;81.40
11144;DHT22;5626;44.730;10.276;2022-09-09T13:00:05;29.20;81.20
11144;DHT22;5626;44.730;10.276;2022-09-09T13:02:35;29.10;81.00
11144;DHT22;5626;44.730;10.276;2022-09-09T13:05:15;29.10;81.10
11144;DHT22;5626;44.730;10.276;2022-09-09T13:07:46;29.10;81.10
11144;DHT22;5626;44.730;10.276;2022-09-09T13:10:25;28.90;81.70
11144;DHT22;5626;44.730;10.276;2022-09-09T13:12:57;28.80;82.50
11144;DHT22;5626;44.730;10.276;2022-09-09T13:15:29;28.80;82.80
11144;DHT22;5626;44.730;10.276;2022-09-09T13:18:01;28.80;82.40
11144;DHT22;5626;44.730;10.276;2022-09-09T13:20:33;29.00;82.20
11144;DHT22;5626;44.730;10.276;2022-09-09T13:23:02;29.40;83.50
11144;DHT22;5626;44.730;10.276;2022-09-09T13:25:32;29.80;84.20
11144;DHT22;5626;44.730;10.276;2022-09-09T13:28:05;30.00;82.80
11144;DHT22;5626;44.730;10.276;2022-09-09T13:30:36;30.10;81.70
11144;DHT22;5626;44.730;10.276;2022-09-09T13:33:21;30.30;80.20
11144;DHT22;5626;44.730;10.276;2022-09-09T13:35:55;30.50;79.60
11144;DHT22;5626;44.730;10.276;2022-09-09T13:38:26;30.60;78.70
11144;DHT22;5626;44.730;10.276;2022-09-09T13:40:58;30.80;78.60
11144;DHT22;5626;44.730;10.276;2022-09-09T13:43:32;30.90;77.10
11144;DHT22;5626;44.730;10.276;2022-09-09T13:46:06;31.00;77.90
11144;DHT22;5626;44.730;10.276;2022-09-09T13:48:56;31.10;77.60
11144;DHT22;5626;44.730;10.276;2022-09-09T13:51:33;31.20;76.90
11144;DHT22;5626;44.730;10.276;2022-09-09T13:54:05;31.30;76.40
11144;DHT22;5626;44.730;10.276;2022-09-09T13:56:36;31.40;76.10
11144;DHT22;5626;44.730;10.276;2022-09-09T13:59:13;31.40;75.80
11144;DHT22;5626;44.730;10.276;2022-09-09T14:01:43;31.30;74.70
11144;DHT22;5626;44.730;10.276;2022-09-09T14:04:12;31.20;75.00
11144;DHT22;5626;44.730;10.276;2022-09-09T14:06:44;31.20;75.50
11144;DHT22;5626;44.730;10.276;2022-09-09T14:09:16;31.30;75.20
11144;DHT22;5626;44.730;10.276;2022-09-09T14:11:46;31.50;75.20
11144;DHT22;5626;44.730;10.276;2022-09-09T14:14:16;31.50;74.60
11144;DHT22;5626;44.730;10.276;2022-09-09T14:16:45;31.50;74.00
11144;DHT22;5626;44.730;10.276;2022-09-09T14:19:15;31.60;74.30
11144;DHT22;5626;44.730;10.276;2022-09-09T14:21:47;31.60;73.60
11144;DHT22;5626;44.730;10.276;2022-09-09T14:24:18;31.60;73.00
11144;DHT22;5626;44.730;10.276;2022-09-09T14:26:48;31.70;72.30
11144;DHT22;5626;44.730;10.276;2022-09-09T14:29:17;31.80;71.10
11144;DHT22;5626;44.730;10.276;2022-09-09T14:31:47;31.80;71.20
11144;DHT22;5626;44.730;10.276;2022-09-09T14:34:16;31.90;71.10
11144;DHT22;5626;44.730;10.276;2022-09-09T14:36:47;31.90;70.90
11144;DHT22;5626;44.730;10.276;2022-09-09T14:39:18;31.90;71.10
11144;DHT22;5626;44.730;10.276;2022-09-09T14:41:48;31.80;71.30
11144;DHT22;5626;44.730;10.276;2022-09-09T14:44:17;31.80;71.60
11144;DHT22;5626;44.730;10.276;2022-09-09T14:46:47;31.90;71.60
11144;DHT22;5626;44.730;10.276;2022-09-09T14:49:18;32.10;71.50
11144;DHT22;5626;44.730;10.276;2022-09-09T14:51:49;32.20;71.00
11144;DHT22;5626;44.730;10.276;2022-09-09T14:54:18;32.20;70.70
11144;DHT22;5626;44.730;10.276;2022-09-09T14:56:49;32.10;70.50
11144;DHT22;5626;44.730;10.276;2022-09-09T14:59:19;31.90;71.30
11144;DHT22;5626;44.730;10.276;2022-09-09T15:01:49;31.80;71.40
11144;DHT22;5626;44.730;10.276;2022-09-09T15:04:19;31.50;72.10
11144;DHT22;5626;44.730;10.276;2022-09-09T15:06:50;31.20;73.30
11144;DHT22;5626;44.730;10.276;2022-09-09T15:09:21;30.90;73.90
11144;DHT22;5626;44.730;10.276;2022-09-09T15:11:50;30.70;73.90
11144;DHT22;5626;44.730;10.276;2022-09-09T15:14:20;30.40;74.60
11144;DHT22;5626;44.730;10.276;2022-09-09T15:16:52;30.00;75.10
11144;DHT22;5626;44.730;10.276;2022-09-09T15:19:22;29.90;75.80
11144;DHT22;5626;44.730;10.276;2022-09-09T15:21:54;29.80;75.80
11144;DHT22;5626;44.730;10.276;2022-09-09T15:24:24;29.70;75.90
11144;DHT22;5626;44.730;10.276;2022-09-09T15:26:53;29.60;76.40
11144;DHT22;5626;44.730;10.276;2022-09-09T15:29:24;29.60;77.00
11144;DHT22;5626;44.730;10.276;2022-09-09T15:31:54;29.60;77.00
11144;DHT22;5626;44.730;10.276;2022-09-09T15:34:24;29.60;76.80
11144;DHT22;5626;44.730;10.276;2022-09-09T15:36:55;29.40;77.50
11144;DHT22;5626;44.730;10.276;2022-09-09T15:39:25;29.20;77.80
11144;DHT22;5626;44.730;10.276;2022-09-09T15:41:54;29.20;78.00
11144;DHT22;5626;44.730;10.276;2022-09-09T15:44:24;29.30;78.40
11144;DHT22;5626;44.730;10.276;2022-09-09T15:46:54;29.20;79.00
11144;DHT22;5626;44.730;10.276;2022-09-09T15:49:25;29.30;81.40
11144;DHT22;5626;44.730;10.276;2022-09-09T15:51:57;29.20;83.00
11144;DHT22;5626;44.730;10.276;2022-09-09T15:54:32;29.20;83.50
11144;DHT22;5626;44.730;10.276;2022-09-09T15:57:03;29.00;83.80
11144;DHT22;5626;44.730;10.276;2022-09-09T15:59:34;29.00;83.50
11144;DHT22;5626;44.730;10.276;2022-09-09T16:02:04;28.90;83.80
11144;DHT22;5626;44.730;10.276;2022-09-09T16:04:34;29.00;83.20
11144;DHT22;5626;44.730;10.276;2022-09-09T16:07:05;29.10;82.80
11144;DHT22;5626;44.730;10.276;2022-09-09T16:09:36;29.20;82.30
11144;DHT22;5626;44.730;10.276;2022-09-09T16:12:05;29.20;83.00
11144;DHT22;5626;44.730;10.276;2022-09-09T16:14:37;29.10;82.90
11144;DHT22;5626;44.730;10.276;2022-09-09T16:17:07;29.10;82.90
11144;DHT22;5626;44.730;10.276;2022-09-09T16:19:37;28.90;83.00
11144;DHT22;5626;44.730;10.276;2022-09-09T16:22:08;28.70;83.60
11144;DHT22;5626;44.730;10.276;2022-09-09T16:24:37;28.70;84.20
11144;DHT22;5626;44.730;10.276;2022-09-09T16:27:07;28.40;84.40